createdAt,value
2017-09-20T00:00:10.442Z,86.61
2017-09-20T00:00:36.566Z,86.71
2017-09-20T00:01:02.684Z,86.61
2017-09-20T00:01:28.802Z,86.71
2017-09-20T00:01:54.925Z,86.52
2017-09-20T00:02:21.050Z,86.61
2017-09-20T00:02:47.186Z,86.71
2017-09-20T00:03:13.311Z,86.33
2017-09-20T00:03:39.430Z,86.04
2017-09-20T00:04:05.556Z,86.23
2017-09-20T00:04:31.699Z,86.33
2017-09-20T00:04:57.815Z,86.33
2017-09-20T00:05:23.942Z,86.14
2017-09-20T00:05:50.065Z,86.14
2017-09-20T00:06:16.203Z,85.94
2017-09-20T00:06:42.326Z,85.66
2017-09-20T00:07:08.444Z,85.57
2017-09-20T00:07:34.567Z,85.85
2017-09-20T00:08:00.688Z,85.85
2017-09-20T00:08:26.806Z,86.04
2017-09-20T00:08:52.927Z,85.75
2017-09-20T00:09:19.051Z,85.94
2017-09-20T00:09:45.168Z,85.66
2017-09-20T00:10:11.939Z,86.33
2017-09-20T00:10:38.063Z,86.04
2017-09-20T00:11:04.190Z,85.75
2017-09-20T00:11:30.306Z,85.57
2017-09-20T00:11:56.425Z,85.66
2017-09-20T00:12:22.545Z,85.47
2017-09-20T00:12:48.672Z,86.04
2017-09-20T00:13:14.789Z,85.94
2017-09-20T00:13:40.906Z,86.43
2017-09-20T00:14:07.032Z,86.43
2017-09-20T00:14:33.155Z,86.43
2017-09-20T00:14:59.276Z,86.61
2017-09-20T00:15:25.388Z,86.43
2017-09-20T00:15:51.515Z,86.23
2017-09-20T00:16:17.631Z,86.71
2017-09-20T00:16:43.757Z,86.47
2017-09-20T00:17:09.874Z,86.43
2017-09-20T00:17:35.997Z,87
2017-09-20T00:18:02.123Z,86.71
2017-09-20T00:18:28.245Z,86.76
2017-09-20T00:18:54.366Z,87.15
2017-09-20T00:19:20.492Z,87.05
2017-09-20T00:19:46.619Z,87.05
2017-09-20T00:20:12.732Z,87.15
2017-09-20T00:20:38.858Z,87.15
2017-09-20T00:21:04.974Z,87.34
2017-09-20T00:21:31.098Z,87.15
2017-09-20T00:21:57.218Z,87.15
2017-09-20T00:22:23.338Z,87.29
2017-09-20T00:22:49.457Z,86.8
2017-09-20T00:23:15.579Z,87.24
2017-09-20T00:23:41.702Z,87.15
2017-09-20T00:24:07.820Z,87.15
2017-09-20T00:24:33.951Z,87.24
2017-09-20T00:25:00.074Z,87.34
2017-09-20T00:25:26.192Z,86.96
2017-09-20T00:25:52.311Z,87.43
2017-09-20T00:26:18.438Z,87.53
2017-09-20T00:26:44.554Z,87.34
2017-09-20T00:27:10.677Z,87.34
2017-09-20T00:27:36.799Z,87.34
2017-09-20T00:28:02.920Z,87.15
2017-09-20T00:28:29.030Z,87.24
2017-09-20T00:28:55.153Z,87.24
2017-09-20T00:29:21.292Z,87.15
2017-09-20T00:29:47.415Z,87.15
2017-09-20T00:30:13.530Z,87.62
2017-09-20T00:30:39.656Z,87.43
2017-09-20T00:31:05.797Z,87.43
2017-09-20T00:31:31.918Z,87.43
2017-09-20T00:31:58.043Z,87.53
2017-09-20T00:32:24.158Z,87.91
2017-09-20T00:32:50.277Z,88.1
2017-09-20T00:33:16.402Z,87.82
2017-09-20T00:33:42.526Z,88.87
2017-09-20T00:34:08.642Z,88.29
2017-09-20T00:34:34.759Z,88.58
2017-09-20T00:35:00.881Z,88.48
2017-09-20T00:35:27.001Z,88.29
2017-09-20T00:35:53.127Z,88.29
2017-09-20T00:36:19.243Z,88.58
2017-09-20T00:36:45.369Z,88.48
2017-09-20T00:37:11.492Z,88.48
2017-09-20T00:37:37.607Z,88.48
2017-09-20T00:38:03.727Z,88.77
2017-09-20T00:38:29.853Z,88.48
2017-09-20T00:38:55.975Z,88.48
2017-09-20T00:39:22.093Z,88.29
2017-09-20T00:39:48.218Z,88.58
2017-09-20T00:40:14.336Z,87.72
2017-09-20T00:40:40.459Z,88.01
2017-09-20T00:41:06.576Z,88.1
2017-09-20T00:41:32.697Z,87.91
2017-09-20T00:41:58.814Z,87.82
2017-09-20T00:42:24.940Z,88.01
2017-09-20T00:42:51.063Z,87.82
2017-09-20T00:43:17.184Z,88.1
2017-09-20T00:43:43.309Z,88.01
2017-09-20T00:44:09.425Z,87.82
2017-09-20T00:44:35.551Z,87.82
2017-09-20T00:45:01.668Z,88.01
2017-09-20T00:45:27.800Z,87.91
2017-09-20T00:45:53.912Z,88.1
2017-09-20T00:46:20.040Z,87.91
2017-09-20T00:46:46.155Z,88.68
2017-09-20T00:47:12.272Z,88.2
2017-09-20T00:47:38.399Z,88.1
2017-09-20T00:48:04.514Z,87.72
2017-09-20T00:48:30.667Z,87.91
2017-09-20T00:48:56.787Z,87.91
2017-09-20T00:49:22.910Z,87.91
2017-09-20T00:49:49.024Z,88.01
2017-09-20T00:50:15.146Z,88.01
2017-09-20T00:50:41.272Z,87.82
2017-09-20T00:51:07.394Z,87.91
2017-09-20T00:51:33.508Z,87.91
2017-09-20T00:51:59.652Z,88.1
2017-09-20T00:52:25.777Z,87.91
2017-09-20T00:52:51.902Z,87.91
2017-09-20T00:53:18.017Z,88.01
2017-09-20T00:53:44.137Z,88.68
2017-09-20T00:54:10.264Z,88.58
2017-09-20T00:54:36.382Z,88.68
2017-09-20T00:55:02.508Z,88.68
2017-09-20T00:55:28.625Z,88.77
2017-09-20T00:55:54.751Z,88.77
2017-09-20T00:56:20.873Z,88.29
2017-09-20T00:56:46.988Z,88.39
2017-09-20T00:57:13.114Z,88.39
2017-09-20T00:57:39.256Z,88.29
2017-09-20T00:58:05.381Z,88.48
2017-09-20T00:58:31.498Z,88.48
2017-09-20T00:58:57.617Z,88.48
2017-09-20T00:59:23.744Z,88.29
2017-09-20T00:59:49.885Z,88.29
2017-09-20T01:00:15.999Z,88.48
2017-09-20T01:00:42.119Z,88.29
2017-09-20T01:01:08.245Z,88.48
2017-09-20T01:01:34.363Z,88.77
2017-09-20T01:02:00.490Z,88.96
2017-09-20T01:02:26.612Z,89.15
2017-09-20T01:02:52.733Z,89.25
2017-09-20T01:03:18.861Z,88.96
2017-09-20T01:03:44.980Z,88.2
2017-09-20T01:04:11.096Z,88.87
2017-09-20T01:04:37.223Z,88.48
2017-09-20T01:05:03.337Z,88.39
2017-09-20T01:05:29.463Z,88.68
2017-09-20T01:05:55.587Z,88.68
2017-09-20T01:06:21.708Z,88.58
2017-09-20T01:06:47.837Z,88.68
2017-09-20T01:07:13.960Z,88.1
2017-09-20T01:07:40.088Z,88.68
2017-09-20T01:08:06.211Z,88.68
2017-09-20T01:08:32.351Z,88.68
2017-09-20T01:08:58.477Z,88.58
2017-09-20T01:09:24.592Z,88.77
2017-09-20T01:09:50.719Z,88.1
2017-09-20T01:10:16.840Z,87.82
2017-09-20T01:10:42.955Z,88.01
2017-09-20T01:11:09.077Z,88.1
2017-09-20T01:11:35.203Z,88.01
2017-09-20T01:12:01.319Z,88.01
2017-09-20T01:12:27.460Z,88.1
2017-09-20T01:12:53.581Z,87.91
2017-09-20T01:13:19.702Z,87.82
2017-09-20T01:13:45.819Z,87.82
2017-09-20T01:14:11.963Z,87.91
2017-09-20T01:14:38.088Z,87.82
2017-09-20T01:15:04.204Z,87.91
2017-09-20T01:15:30.328Z,87.91
2017-09-20T01:15:56.439Z,87.91
2017-09-20T01:16:22.600Z,88.01
2017-09-20T01:16:48.684Z,88.01
2017-09-20T01:17:14.802Z,88.01
2017-09-20T01:17:40.926Z,87.15
2017-09-20T01:18:07.041Z,88.01
2017-09-20T01:18:33.178Z,87.34
2017-09-20T01:18:59.306Z,87.62
2017-09-20T01:19:25.446Z,87.24
2017-09-20T01:19:51.570Z,88.2
2017-09-20T01:20:17.696Z,87.53
2017-09-20T01:20:43.814Z,87.62
2017-09-20T01:21:09.933Z,88.01
2017-09-20T01:21:36.056Z,87.43
2017-09-20T01:22:02.171Z,87.62
2017-09-20T01:22:28.300Z,87.62
2017-09-20T01:22:54.436Z,87.53
2017-09-20T01:23:20.557Z,87.91
2017-09-20T01:23:46.678Z,88.01
2017-09-20T01:24:12.803Z,88.01
2017-09-20T01:24:38.926Z,88.2
2017-09-20T01:25:05.042Z,88.2
2017-09-20T01:25:31.169Z,88.77
2017-09-20T01:25:57.294Z,88.58
2017-09-20T01:26:23.411Z,88.39
2017-09-20T01:26:49.536Z,88.87
2017-09-20T01:27:15.651Z,88.39
2017-09-20T01:27:41.770Z,88.39
2017-09-20T01:28:07.894Z,88.48
2017-09-20T01:28:34.010Z,88.68
2017-09-20T01:29:00.134Z,88.68
2017-09-20T01:29:26.296Z,89.44
2017-09-20T01:29:52.374Z,88.48
2017-09-20T01:30:18.499Z,88.96
2017-09-20T01:30:44.617Z,88.87
2017-09-20T01:31:10.733Z,89.15
2017-09-20T01:31:36.855Z,88.48
2017-09-20T01:32:02.982Z,88.68
2017-09-20T01:32:29.098Z,88.68
2017-09-20T01:32:55.225Z,88.87
2017-09-20T01:33:21.339Z,89.06
2017-09-20T01:33:47.466Z,89.34
2017-09-20T01:34:13.584Z,89.92
2017-09-20T01:34:39.723Z,89.11
2017-09-20T01:35:05.845Z,88.63
2017-09-20T01:35:31.970Z,89.11
2017-09-20T01:35:58.086Z,89.2
2017-09-20T01:36:24.214Z,89.59
2017-09-20T01:36:50.327Z,89.39
2017-09-20T01:37:16.447Z,89.3
2017-09-20T01:37:42.567Z,89.68
2017-09-20T01:38:08.694Z,89.39
2017-09-20T01:38:34.812Z,89.3
2017-09-20T01:39:00.936Z,90.06
2017-09-20T01:39:27.058Z,89.87
2017-09-20T01:39:53.178Z,89.87
2017-09-20T01:40:19.302Z,89.87
2017-09-20T01:40:45.437Z,89.68
2017-09-20T01:41:11.556Z,89.97
2017-09-20T01:41:37.676Z,89.87
2017-09-20T01:42:03.798Z,90.06
2017-09-20T01:42:29.922Z,89.97
2017-09-20T01:42:56.037Z,89.87
2017-09-20T01:43:22.173Z,90.06
2017-09-20T01:43:48.300Z,89.97
2017-09-20T01:44:14.416Z,89.87
2017-09-20T01:44:40.537Z,89.78
2017-09-20T01:45:06.671Z,90.06
2017-09-20T01:45:32.791Z,90.45
2017-09-20T01:45:58.910Z,90.35
2017-09-20T01:46:25.028Z,90.35
2017-09-20T01:46:51.149Z,90.35
2017-09-20T01:47:17.263Z,90.35
2017-09-20T01:47:43.387Z,90.25
2017-09-20T01:48:09.509Z,90.35
2017-09-20T01:48:35.623Z,90.16
2017-09-20T01:49:01.744Z,90.35
2017-09-20T01:49:27.891Z,90.35
2017-09-20T01:49:54.006Z,90.45
2017-09-20T01:50:20.126Z,90.45
2017-09-20T01:50:46.250Z,90.35
2017-09-20T01:51:12.367Z,90.54
2017-09-20T01:51:38.490Z,90.45
2017-09-20T01:52:04.617Z,90.45
2017-09-20T01:52:30.735Z,90.25
2017-09-20T01:52:56.856Z,90.16
2017-09-20T01:53:22.973Z,90.54
2017-09-20T01:53:49.099Z,90.35
2017-09-20T01:54:15.217Z,90.54
2017-09-20T01:54:41.338Z,90.73
2017-09-20T01:55:07.465Z,90.25
2017-09-20T01:55:33.588Z,90.25
2017-09-20T01:55:59.727Z,89.97
2017-09-20T01:56:25.851Z,90.64
2017-09-20T01:56:51.967Z,90.35
2017-09-20T01:57:18.093Z,89.87
2017-09-20T01:57:44.233Z,90.16
2017-09-20T01:58:10.361Z,90.16
2017-09-20T01:58:36.502Z,89.68
2017-09-20T01:59:02.618Z,90.25
2017-09-20T01:59:28.766Z,90.16
2017-09-20T01:59:54.882Z,90.25
2017-09-20T02:00:20.999Z,90.16
2017-09-20T02:00:47.119Z,89.87
2017-09-20T02:01:13.248Z,90.06
2017-09-20T02:01:39.360Z,90.45
2017-09-20T02:02:05.485Z,90.25
2017-09-20T02:02:31.608Z,90.25
2017-09-20T02:02:57.729Z,90.64
2017-09-20T02:03:23.850Z,91.11
2017-09-20T02:03:49.974Z,90.73
2017-09-20T02:04:16.095Z,90.45
2017-09-20T02:04:42.211Z,90.73
2017-09-20T02:05:08.331Z,90.73
2017-09-20T02:05:34.445Z,90.54
2017-09-20T02:06:00.566Z,90.83
2017-09-20T02:06:26.682Z,90.45
2017-09-20T02:06:52.812Z,90.92
2017-09-20T02:07:18.928Z,91.11
2017-09-20T02:07:45.053Z,91.21
2017-09-20T02:08:11.171Z,90.64
2017-09-20T02:08:37.290Z,91.11
2017-09-20T02:09:03.418Z,91.02
2017-09-20T02:09:29.530Z,91.02
2017-09-20T02:09:55.657Z,90.83
2017-09-20T02:10:21.777Z,90.54
2017-09-20T02:10:47.892Z,91.02
2017-09-20T02:11:14.018Z,91.4
2017-09-20T02:11:40.132Z,90.73
2017-09-20T02:12:06.258Z,90.92
2017-09-20T02:12:32.374Z,90.16
2017-09-20T02:12:58.496Z,90.73
2017-09-20T02:13:24.616Z,90.35
2017-09-20T02:13:50.756Z,90.45
2017-09-20T02:14:16.883Z,90.54
2017-09-20T02:14:42.999Z,90.45
2017-09-20T02:15:09.125Z,90.45
2017-09-20T02:15:35.248Z,90.45
2017-09-20T02:16:01.363Z,90.45
2017-09-20T02:16:27.490Z,90.16
2017-09-20T02:16:53.604Z,89.87
2017-09-20T02:17:19.728Z,89.97
2017-09-20T02:17:45.846Z,89.97
2017-09-20T02:18:11.974Z,90.45
2017-09-20T02:18:38.091Z,89.59
2017-09-20T02:19:04.229Z,89.87
2017-09-20T02:19:30.356Z,89.68
2017-09-20T02:19:56.474Z,89.49
2017-09-20T02:20:22.594Z,89.49
2017-09-20T02:20:48.721Z,90.16
2017-09-20T02:21:14.835Z,89.97
2017-09-20T02:21:40.951Z,90.06
2017-09-20T02:22:07.077Z,90.45
2017-09-20T02:22:33.192Z,90.25
2017-09-20T02:22:59.331Z,90.45
2017-09-20T02:23:25.462Z,90.16
2017-09-20T02:23:51.578Z,89.68
2017-09-20T02:24:17.696Z,89.68
2017-09-20T02:24:43.814Z,89.68
2017-09-20T02:25:09.931Z,89.78
2017-09-20T02:25:36.057Z,89.87
2017-09-20T02:26:02.200Z,89.87
2017-09-20T02:26:28.323Z,89.87
2017-09-20T02:26:54.445Z,89.87
2017-09-20T02:27:20.586Z,89.59
2017-09-20T02:27:46.706Z,90.45
2017-09-20T02:28:12.822Z,89.49
2017-09-20T02:28:38.949Z,89.78
2017-09-20T02:29:05.070Z,89.59
2017-09-20T02:29:31.189Z,89.49
2017-09-20T02:29:57.315Z,90.45
2017-09-20T02:30:23.424Z,90.35
2017-09-20T02:30:49.552Z,90.16
2017-09-20T02:31:15.671Z,89.73
2017-09-20T02:31:41.788Z,89.68
2017-09-20T02:32:07.913Z,89.68
2017-09-20T02:32:34.030Z,89.87
2017-09-20T02:33:00.149Z,89.87
2017-09-20T02:33:26.276Z,89.44
2017-09-20T02:33:52.411Z,89.25
2017-09-20T02:34:18.536Z,89.3
2017-09-20T02:34:44.660Z,89.44
2017-09-20T02:35:10.779Z,89.39
2017-09-20T02:35:36.901Z,89.3
2017-09-20T02:36:03.016Z,89.97
2017-09-20T02:36:29.137Z,89.59
2017-09-20T02:36:55.258Z,89.68
2017-09-20T02:37:21.372Z,89.78
2017-09-20T02:37:47.499Z,90.45
2017-09-20T02:38:13.617Z,90.45
2017-09-20T02:38:39.740Z,90.25
2017-09-20T02:39:05.861Z,90.25
2017-09-20T02:39:31.977Z,90.06
2017-09-20T02:39:58.096Z,90.16
2017-09-20T02:40:24.219Z,90.25
2017-09-20T02:40:50.336Z,90.16
2017-09-20T02:41:16.460Z,89.78
2017-09-20T02:41:42.586Z,89.68
2017-09-20T02:42:08.701Z,90.45
2017-09-20T02:42:34.820Z,90.06
2017-09-20T02:43:00.938Z,90.06
2017-09-20T02:43:27.055Z,90.45
2017-09-20T02:43:53.182Z,90.16
2017-09-20T02:44:19.317Z,90.16
2017-09-20T02:44:45.446Z,90.16
2017-09-20T02:45:11.566Z,89.87
2017-09-20T02:45:37.710Z,89.87
2017-09-20T02:46:03.855Z,90.45
2017-09-20T02:46:29.974Z,90.35
2017-09-20T02:46:56.096Z,90.45
2017-09-20T02:47:22.214Z,90.45
2017-09-20T02:47:48.333Z,90.25
2017-09-20T02:48:14.463Z,90.45
2017-09-20T02:48:40.575Z,90.25
2017-09-20T02:49:06.702Z,90.25
2017-09-20T02:49:32.816Z,90.35
2017-09-20T02:49:58.938Z,90.16
2017-09-20T02:50:25.063Z,90.64
2017-09-20T02:50:51.178Z,90.64
2017-09-20T02:51:17.311Z,90.73
2017-09-20T02:51:43.427Z,90.83
2017-09-20T02:52:09.546Z,91.02
2017-09-20T02:52:35.668Z,90.64
2017-09-20T02:53:01.785Z,90.73
2017-09-20T02:53:27.913Z,90.92
2017-09-20T02:53:54.034Z,91.3
2017-09-20T02:54:20.150Z,91.21
2017-09-20T02:54:46.275Z,91.21
2017-09-20T02:55:12.392Z,91.3
2017-09-20T02:55:38.508Z,91.21
2017-09-20T02:56:04.633Z,91.11
2017-09-20T02:56:30.754Z,91.4
2017-09-20T02:56:56.869Z,91.69
2017-09-20T02:57:22.988Z,90.45
2017-09-20T02:57:49.112Z,90.73
2017-09-20T02:58:15.229Z,90.64
2017-09-20T02:58:41.355Z,90.73
2017-09-20T02:59:07.471Z,90.92
2017-09-20T02:59:33.593Z,90.92
2017-09-20T02:59:59.715Z,90.54
2017-09-20T03:00:25.831Z,90.45
2017-09-20T03:00:51.959Z,91.11
2017-09-20T03:01:18.077Z,91.5
2017-09-20T03:01:44.195Z,91.5
2017-09-20T03:02:10.322Z,91.5
2017-09-20T03:02:36.457Z,91.5
2017-09-20T03:03:02.582Z,91.59
2017-09-20T03:03:28.704Z,91.5
2017-09-20T03:03:54.850Z,91.02
2017-09-20T03:04:20.947Z,91.02
2017-09-20T03:04:47.069Z,91.02
2017-09-20T03:05:13.192Z,91.3
2017-09-20T03:05:39.305Z,91.21
2017-09-20T03:06:05.448Z,91.69
2017-09-20T03:06:31.569Z,90.92
2017-09-20T03:06:57.690Z,91.02
2017-09-20T03:07:23.833Z,90.83
2017-09-20T03:07:49.952Z,90.83
2017-09-20T03:08:16.075Z,90.83
2017-09-20T03:08:42.192Z,90.83
2017-09-20T03:09:08.313Z,90.73
2017-09-20T03:09:34.433Z,90.64
2017-09-20T03:10:00.551Z,90.64
2017-09-20T03:10:26.677Z,90.73
2017-09-20T03:10:52.793Z,90.92
2017-09-20T03:11:18.912Z,90.73
2017-09-20T03:11:45.041Z,90.92
2017-09-20T03:12:11.176Z,90.83
2017-09-20T03:12:37.306Z,90.73
2017-09-20T03:13:03.419Z,91.02
2017-09-20T03:13:29.536Z,90.73
2017-09-20T03:13:55.657Z,90.83
2017-09-20T03:14:21.785Z,90.54
2017-09-20T03:14:47.909Z,90.73
2017-09-20T03:15:14.027Z,91.21
2017-09-20T03:15:40.152Z,90.73
2017-09-20T03:16:06.274Z,91.69
2017-09-20T03:16:32.431Z,91.21
2017-09-20T03:16:58.557Z,91.4
2017-09-20T03:17:24.681Z,91.5
2017-09-20T03:17:50.796Z,91.69
2017-09-20T03:18:16.922Z,91.3
2017-09-20T03:18:43.040Z,91.11
2017-09-20T03:19:09.163Z,91.4
2017-09-20T03:19:35.279Z,91.4
2017-09-20T03:20:01.403Z,90.92
2017-09-20T03:20:27.519Z,91.4
2017-09-20T03:20:53.638Z,90.92
2017-09-20T03:21:19.763Z,91.3
2017-09-20T03:21:45.880Z,91.02
2017-09-20T03:22:12.005Z,90.64
2017-09-20T03:22:38.129Z,90.83
2017-09-20T03:23:04.246Z,90.92
2017-09-20T03:23:30.369Z,91.3
2017-09-20T03:23:56.485Z,91.02
2017-09-20T03:24:22.611Z,91.3
2017-09-20T03:24:48.727Z,91.3
2017-09-20T03:25:14.853Z,91.4
2017-09-20T03:25:40.973Z,90.92
2017-09-20T03:26:07.089Z,91.21
2017-09-20T03:26:33.214Z,91.02
2017-09-20T03:26:59.329Z,90.45
2017-09-20T03:27:25.453Z,90.54
2017-09-20T03:27:51.571Z,91.02
2017-09-20T03:28:17.683Z,90.92
2017-09-20T03:28:43.805Z,91.11
2017-09-20T03:29:09.930Z,91.21
2017-09-20T03:29:36.054Z,91.11
2017-09-20T03:30:02.173Z,91.3
2017-09-20T03:30:28.292Z,91.02
2017-09-20T03:30:54.413Z,91.3
2017-09-20T03:31:20.530Z,91.3
2017-09-20T03:31:46.657Z,91.11
2017-09-20T03:32:12.777Z,91.5
2017-09-20T03:32:38.900Z,90.83
2017-09-20T03:33:05.012Z,90.73
2017-09-20T03:33:31.138Z,91.11
2017-09-20T03:33:57.262Z,90.83
2017-09-20T03:34:23.401Z,91.02
2017-09-20T03:34:49.498Z,90.54
2017-09-20T03:35:15.612Z,90.45
2017-09-20T03:35:41.729Z,90.92
2017-09-20T03:36:07.849Z,90.83
2017-09-20T03:36:33.999Z,90.45
2017-09-20T03:37:00.122Z,90.45
2017-09-20T03:37:26.238Z,90.73
2017-09-20T03:37:52.357Z,90.64
2017-09-20T03:38:18.486Z,90.54
2017-09-20T03:38:44.602Z,90.92
2017-09-20T03:39:10.732Z,91.3
2017-09-20T03:39:36.849Z,91.21
2017-09-20T03:40:02.966Z,90.45
2017-09-20T03:40:29.091Z,90.45
2017-09-20T03:40:55.209Z,91.11
2017-09-20T03:41:21.334Z,90.45
2017-09-20T03:41:47.474Z,90.45
2017-09-20T03:42:13.587Z,90.92
2017-09-20T03:42:39.714Z,91.02
2017-09-20T03:43:05.826Z,91.5
2017-09-20T03:43:31.948Z,91.3
2017-09-20T03:43:58.071Z,91.69
2017-09-20T03:44:24.191Z,91.02
2017-09-20T03:44:50.315Z,91.02
2017-09-20T03:45:16.432Z,90.45
2017-09-20T03:45:42.558Z,90.64
2017-09-20T03:46:08.679Z,90.73
2017-09-20T03:46:34.798Z,90.92
2017-09-20T03:47:00.920Z,90.25
2017-09-20T03:47:27.040Z,90.06
2017-09-20T03:47:53.163Z,90.16
2017-09-20T03:48:19.278Z,90.06
2017-09-20T03:48:45.406Z,90.25
2017-09-20T03:49:11.521Z,90.06
2017-09-20T03:49:37.640Z,90.45
2017-09-20T03:50:03.792Z,90.73
2017-09-20T03:50:29.909Z,90.45
2017-09-20T03:50:56.030Z,90.45
2017-09-20T03:51:22.146Z,90.06
2017-09-20T03:51:48.268Z,90.06
2017-09-20T03:52:14.389Z,90.16
2017-09-20T03:52:40.515Z,90.25
2017-09-20T03:53:06.632Z,90.35
2017-09-20T03:53:32.753Z,90.35
2017-09-20T03:53:58.875Z,90.45
2017-09-20T03:54:24.989Z,90.45
2017-09-20T03:54:51.104Z,90.25
2017-09-20T03:55:17.231Z,90.06
2017-09-20T03:55:43.344Z,90.16
2017-09-20T03:56:09.472Z,90.16
2017-09-20T03:56:35.595Z,90.25
2017-09-20T03:57:01.719Z,90.25
2017-09-20T03:57:27.832Z,89.59
2017-09-20T03:57:53.956Z,89.78
2017-09-20T03:58:20.093Z,89.59
2017-09-20T03:58:46.214Z,89.68
2017-09-20T03:59:12.336Z,89.68
2017-09-20T03:59:38.453Z,90.06
2017-09-20T04:00:04.578Z,90.16
2017-09-20T04:00:30.700Z,90.25
2017-09-20T04:00:56.823Z,90.35
2017-09-20T04:01:22.942Z,89.97
2017-09-20T04:01:49.083Z,89.87
2017-09-20T04:02:15.200Z,90.06
2017-09-20T04:02:41.324Z,90.25
2017-09-20T04:03:07.440Z,90.25
2017-09-20T04:03:33.565Z,90.16
2017-09-20T04:03:59.703Z,90.06
2017-09-20T04:04:25.827Z,89.59
2017-09-20T04:04:51.945Z,89.59
2017-09-20T04:05:18.067Z,89.78
2017-09-20T04:05:44.202Z,89.68
2017-09-20T04:06:10.326Z,89.87
2017-09-20T04:06:36.443Z,89.78
2017-09-20T04:07:02.563Z,89.11
2017-09-20T04:07:28.685Z,89.2
2017-09-20T04:07:54.803Z,89.2
2017-09-20T04:08:20.928Z,88.82
2017-09-20T04:08:47.051Z,89.97
2017-09-20T04:09:13.167Z,89.68
2017-09-20T04:09:39.293Z,89.11
2017-09-20T04:10:05.410Z,89.2
2017-09-20T04:10:31.529Z,89.01
2017-09-20T04:10:57.654Z,89.2
2017-09-20T04:11:23.770Z,89.39
2017-09-20T04:11:49.897Z,89.2
2017-09-20T04:12:16.021Z,89.49
2017-09-20T04:12:42.157Z,89.97
2017-09-20T04:13:08.283Z,90.06
2017-09-20T04:13:34.399Z,89.87
2017-09-20T04:14:00.524Z,89.01
2017-09-20T04:14:26.646Z,89.2
2017-09-20T04:14:52.763Z,89.68
2017-09-20T04:15:18.887Z,89.2
2017-09-20T04:15:45.007Z,89.97
2017-09-20T04:16:11.123Z,89.68
2017-09-20T04:16:37.241Z,89.68
2017-09-20T04:17:03.365Z,89.68
2017-09-20T04:17:29.486Z,89.78
2017-09-20T04:17:55.602Z,89.97
2017-09-20T04:18:21.729Z,89.87
2017-09-20T04:18:47.849Z,89.39
2017-09-20T04:19:13.971Z,89.2
2017-09-20T04:19:40.085Z,89.87
2017-09-20T04:20:06.206Z,89.97
2017-09-20T04:20:32.331Z,89.78
2017-09-20T04:20:58.452Z,89.97
2017-09-20T04:21:24.593Z,89.87
2017-09-20T04:21:50.709Z,89.68
2017-09-20T04:22:16.833Z,89.87
2017-09-20T04:22:42.954Z,89.49
2017-09-20T04:23:09.069Z,89.87
2017-09-20T04:23:35.194Z,89.68
2017-09-20T04:24:01.319Z,89.68
2017-09-20T04:24:27.433Z,89.59
2017-09-20T04:24:53.556Z,89.87
2017-09-20T04:25:19.693Z,90.45
2017-09-20T04:25:45.816Z,90.06
2017-09-20T04:26:11.934Z,91.02
2017-09-20T04:26:38.056Z,90.92
2017-09-20T04:27:04.174Z,90.92
2017-09-20T04:27:30.300Z,90.83
2017-09-20T04:27:56.414Z,91.02
2017-09-20T04:28:22.534Z,91.11
2017-09-20T04:28:48.650Z,91.02
2017-09-20T04:29:14.778Z,90.83
2017-09-20T04:29:40.905Z,90.83
2017-09-20T04:30:07.027Z,90.92
2017-09-20T04:30:33.164Z,90.83
2017-09-20T04:30:59.288Z,90.83
2017-09-20T04:31:25.430Z,90.83
2017-09-20T04:31:51.547Z,91.02
2017-09-20T04:32:17.672Z,90.64
2017-09-20T04:32:43.809Z,91.4
2017-09-20T04:33:09.934Z,90.83
2017-09-20T04:33:36.042Z,90.83
2017-09-20T04:34:02.159Z,91.3
2017-09-20T04:34:28.289Z,90.83
2017-09-20T04:34:54.411Z,90.73
2017-09-20T04:35:20.531Z,90.83
2017-09-20T04:35:46.646Z,90.64
2017-09-20T04:36:12.771Z,90.45
2017-09-20T04:36:38.896Z,91.02
2017-09-20T04:37:05.013Z,91.02
2017-09-20T04:37:31.139Z,90.92
2017-09-20T04:37:57.256Z,90.54
2017-09-20T04:38:23.382Z,90.35
2017-09-20T04:38:49.497Z,91.11
2017-09-20T04:39:15.615Z,91.21
2017-09-20T04:39:41.739Z,91.21
2017-09-20T04:40:07.912Z,91.4
2017-09-20T04:40:33.998Z,91.4
2017-09-20T04:41:00.125Z,91.3
2017-09-20T04:41:26.242Z,91.4
2017-09-20T04:41:52.364Z,91.59
2017-09-20T04:42:18.488Z,91.4
2017-09-20T04:42:44.608Z,91.59
2017-09-20T04:43:10.730Z,91.59
2017-09-20T04:43:36.849Z,91.21
2017-09-20T04:44:02.974Z,91.21
2017-09-20T04:44:29.091Z,91.11
2017-09-20T04:44:55.219Z,91.02
2017-09-20T04:45:21.341Z,90.54
2017-09-20T04:45:47.457Z,90.73
2017-09-20T04:46:13.574Z,91.11
2017-09-20T04:46:39.697Z,91.02
2017-09-20T04:47:05.822Z,91.02
2017-09-20T04:47:31.932Z,90.83
2017-09-20T04:47:58.053Z,90.73
2017-09-20T04:48:24.175Z,90.83
2017-09-20T04:48:50.297Z,90.45
2017-09-20T04:49:16.420Z,91.59
2017-09-20T04:49:42.538Z,91.21
2017-09-20T04:50:08.665Z,91.4
2017-09-20T04:50:34.786Z,91.59
2017-09-20T04:51:00.903Z,91.4
2017-09-20T04:51:27.029Z,91.4
2017-09-20T04:51:53.146Z,91.88
2017-09-20T04:52:19.262Z,90.92
2017-09-20T04:52:45.383Z,90.83
2017-09-20T04:53:11.528Z,91.3
2017-09-20T04:53:37.620Z,91.11
2017-09-20T04:54:03.765Z,91.4
2017-09-20T04:54:29.883Z,91.3
2017-09-20T04:54:56.010Z,90.92
2017-09-20T04:55:22.128Z,90.92
2017-09-20T04:55:48.246Z,91.11
2017-09-20T04:56:14.370Z,91.3
2017-09-20T04:56:40.498Z,91.02
2017-09-20T04:57:06.616Z,90.54
2017-09-20T04:57:32.737Z,90.64
2017-09-20T04:57:58.855Z,90.73
2017-09-20T04:58:24.982Z,90.92
2017-09-20T04:58:51.117Z,90.45
2017-09-20T04:59:17.255Z,90.45
2017-09-20T04:59:43.375Z,90.64
2017-09-20T05:00:09.490Z,90.92
2017-09-20T05:00:35.615Z,90.83
2017-09-20T05:01:01.737Z,90.54
2017-09-20T05:01:27.875Z,90.45
2017-09-20T05:01:54.001Z,90.06
2017-09-20T05:02:20.117Z,90.16
2017-09-20T05:02:46.241Z,90.06
2017-09-20T05:03:12.357Z,90.83
2017-09-20T05:03:38.476Z,91.02
2017-09-20T05:04:04.603Z,90.83
2017-09-20T05:04:30.726Z,90.83
2017-09-20T05:04:56.842Z,90.83
2017-09-20T05:05:22.960Z,90.83
2017-09-20T05:05:49.089Z,91.4
2017-09-20T05:06:15.222Z,90.35
2017-09-20T05:06:41.349Z,90.06
2017-09-20T05:07:07.463Z,90.16
2017-09-20T05:07:33.591Z,90.83
2017-09-20T05:07:59.721Z,90.83
2017-09-20T05:08:25.836Z,90.06
2017-09-20T05:08:51.961Z,90.35
2017-09-20T05:09:18.082Z,90.54
2017-09-20T05:09:44.197Z,90.16
2017-09-20T05:10:10.316Z,90.25
2017-09-20T05:10:36.441Z,90.45
2017-09-20T05:11:02.557Z,90.25
2017-09-20T05:11:28.676Z,90.16
2017-09-20T05:11:54.833Z,89.97
2017-09-20T05:12:20.912Z,90.16
2017-09-20T05:12:47.038Z,90.54
2017-09-20T05:13:13.168Z,90.45
2017-09-20T05:13:39.283Z,90.16
2017-09-20T05:14:05.398Z,90.25
2017-09-20T05:14:31.524Z,89.97
2017-09-20T05:14:57.646Z,90.54
2017-09-20T05:15:23.762Z,90.54
2017-09-20T05:15:49.889Z,90.25
2017-09-20T05:16:16.006Z,90.06
2017-09-20T05:16:42.127Z,90.54
2017-09-20T05:17:08.242Z,90.45
2017-09-20T05:17:34.363Z,90.25
2017-09-20T05:18:00.484Z,90.06
2017-09-20T05:18:26.610Z,90.06
2017-09-20T05:18:52.727Z,90.54
2017-09-20T05:19:18.845Z,90.83
2017-09-20T05:19:44.973Z,90.83
2017-09-20T05:20:11.091Z,90.83
2017-09-20T05:20:37.216Z,90.64
2017-09-20T05:21:03.335Z,90.45
2017-09-20T05:21:29.455Z,90.64
2017-09-20T05:21:55.581Z,90.73
2017-09-20T05:22:21.695Z,90.45
2017-09-20T05:22:47.813Z,90.83
2017-09-20T05:23:13.937Z,90.64
2017-09-20T05:23:40.060Z,91.02
2017-09-20T05:24:06.180Z,90.83
2017-09-20T05:24:32.300Z,90.83
2017-09-20T05:24:58.423Z,90.83
2017-09-20T05:25:24.540Z,91.02
2017-09-20T05:25:50.664Z,90.83
2017-09-20T05:26:16.791Z,90.64
2017-09-20T05:26:42.906Z,90.54
2017-09-20T05:27:09.032Z,90.64
2017-09-20T05:27:35.148Z,91.02
2017-09-20T05:28:01.267Z,90.83
2017-09-20T05:28:27.395Z,90.83
2017-09-20T05:28:53.511Z,91.02
2017-09-20T05:29:19.634Z,91.3
2017-09-20T05:29:45.753Z,90.45
2017-09-20T05:30:11.877Z,90.54
2017-09-20T05:30:38.002Z,90.45
2017-09-20T05:31:04.142Z,90.25
2017-09-20T05:31:30.261Z,90.25
2017-09-20T05:31:56.378Z,90.25
2017-09-20T05:32:22.523Z,90.16
2017-09-20T05:32:48.647Z,90.45
2017-09-20T05:33:14.770Z,90.45
2017-09-20T05:33:40.897Z,90.16
2017-09-20T05:34:07.011Z,90.06
2017-09-20T05:34:33.138Z,90.06
2017-09-20T05:34:59.257Z,90.25
2017-09-20T05:35:25.378Z,90.25
2017-09-20T05:35:51.508Z,90.54
2017-09-20T05:36:17.624Z,90.06
2017-09-20T05:36:43.741Z,90.64
2017-09-20T05:37:09.861Z,90.64
2017-09-20T05:37:35.980Z,90.45